Rocky Mountain Metropolitan Airport
KBJC : now visible

Airfield :











YOU CAN JOIN US ON...

 
LOGIN :

Register | Disclaimer

   EN    FR    IT 

 









Legend :    VFR   Marginal VFR   IFR   Intensive IFR   Very Intensive IFR
Visi :
Ceiling :
>= 8 km
>= 3000ft
5 to 8 km
1000 to 3000 ft
1500m to 5 km
500 to 1000 ft
800 to 1500m
200 to 500 ft
< 800m
< 200 ft
Symbols :   Thunderstorms  Fog  Heavy snow  Heavy precipitations  Wind > 20 kt






- Airport Elevation : 5673 ft


KBJC - Rocky Mountain Metropolitan

CURRENT METAR :
  • 230045Z 05006KT 10SM BKN060 09/02 A2978

EXPIRED METARs :
  • 222345Z 00000KT 10SM BKN100 09/02 A2978
  • 222245Z 09005KT 10SM BKN060 10/02 A2975

TAF KBJC
Valid from the 23 at 00:00 until the 24 at 00:00 UTC


222330Z 2300/2324 VRB06KT P6SM VCSH SCT060 BKN120 BKN200
FM230300 21007KT P6SM FEW070 SCT120 BKN200
FM230600 25008KT P6SM FEW120 SCT220
FM231400 VRB06KT P6SM SCT220
FM231900 06008KT P6SM VCSH SCT100 BKN140
KZDV FIR / North America



MET'MAP, your aeronautical weather chart ! - Copyright ORBIFLY December 2007 - Disclaimer

ORBIFLY MET'MAP TEAM :

Programming & Development : Alexandra Zaïnal
Concept & original design : Baudouin d'Aumeries
Assistance for programming : Marc-Olivier Méhu
Technical & hardware support : Manuel Goepfert

Contact : metmap@orbifly.com




SOURCES & CREDITS :

   NOAA       Earth
Advisory